createdAt,value
2022-09-27T00:02:45.366Z,9.90
2022-09-27T00:05:46.377Z,9.90
2022-09-27T00:08:47.340Z,9.80
2022-09-27T00:11:48.404Z,9.80
2022-09-27T00:14:49.240Z,9.80
2022-09-27T00:17:52.141Z,9.80
2022-09-27T00:20:53.453Z,9.70
2022-09-27T00:23:54.412Z,9.70
2022-09-27T00:26:55.455Z,9.60
2022-09-27T00:29:56.720Z,9.60
2022-09-27T00:32:57.430Z,9.60
2022-09-27T00:36:05.925Z,9.60
2022-09-27T00:39:07.159Z,9.50
2022-09-27T00:42:13.143Z,9.60
2022-09-27T00:45:18.066Z,9.50
2022-09-27T00:48:28.315Z,9.50
2022-09-27T00:51:31.068Z,9.50
2022-09-27T00:54:36.551Z,9.50
2022-09-27T00:57:38.065Z,9.50
2022-09-27T01:00:45.776Z,9.50
2022-09-27T01:04:06.414Z,9.50
2022-09-27T01:07:07.710Z,9.50
2022-09-27T01:10:10.443Z,9.50
2022-09-27T01:13:28.381Z,9.50
2022-09-27T01:16:45.767Z,9.50
2022-09-27T01:20:32.609Z,9.40
2022-09-27T01:24:26.352Z,9.50
2022-09-27T01:28:01.032Z,9.40
2022-09-27T01:31:36.593Z,9.40
2022-09-27T01:35:03.494Z,9.40
2022-09-27T01:38:47.569Z,9.40
2022-09-27T01:42:12.954Z,9.40
2022-09-27T01:46:01.284Z,9.40
2022-09-27T01:49:58.273Z,9.40
2022-09-27T01:53:29.098Z,9.50
2022-09-27T01:57:06.746Z,9.50
2022-09-27T02:00:13.639Z,9.50
2022-09-27T02:03:24.846Z,9.50
2022-09-27T02:06:59.692Z,9.50
2022-09-27T02:10:14.832Z,9.50
2022-09-27T02:13:44.285Z,9.50
2022-09-27T02:17:29.900Z,9.50
2022-09-27T02:20:41.637Z,9.50
2022-09-27T02:23:51.330Z,9.50
2022-09-27T02:27:09.074Z,9.50
2022-09-27T02:30:16.561Z,9.50
2022-09-27T02:33:30.689Z,9.50
2022-09-27T02:36:32.407Z,9.50
2022-09-27T02:39:33.899Z,9.40
2022-09-27T02:42:39.178Z,9.40
2022-09-27T02:46:06.238Z,9.40
2022-09-27T02:49:20.618Z,9.40
2022-09-27T02:52:56.120Z,9.40
2022-09-27T02:56:13.392Z,9.30
2022-09-27T03:00:10.184Z,9.30
2022-09-27T03:03:51.048Z,9.20
2022-09-27T03:06:54.822Z,9.20
2022-09-27T03:09:56.072Z,9.20
2022-09-27T03:13:00.556Z,9.30
2022-09-27T03:16:02.219Z,9.40
2022-09-27T03:19:25.212Z,9.40
2022-09-27T03:23:00.920Z,9.40
2022-09-27T03:26:02.059Z,9.40
2022-09-27T03:29:03.634Z,9.40
2022-09-27T03:32:05.084Z,9.40
2022-09-27T03:35:37.080Z,9.40
2022-09-27T03:38:38.915Z,9.40
2022-09-27T03:41:42.542Z,9.40
2022-09-27T03:44:43.443Z,9.40
2022-09-27T03:47:44.816Z,9.30
2022-09-27T03:50:45.714Z,9.30
2022-09-27T03:53:47.257Z,9.20
2022-09-27T03:56:48.408Z,9.10
2022-09-27T03:59:49.606Z,9.10
2022-09-27T04:03:08.979Z,9.10
2022-09-27T04:06:24.510Z,9.00
2022-09-27T04:09:25.980Z,9.00
2022-09-27T04:12:33.635Z,9.00
2022-09-27T04:15:34.697Z,9.00
2022-09-27T04:19:04.472Z,9.00
2022-09-27T04:22:18.385Z,8.90
2022-09-27T04:25:19.678Z,8.90
2022-09-27T04:28:22.870Z,8.90
2022-09-27T04:31:24.425Z,8.90
2022-09-27T04:35:02.409Z,8.80
2022-09-27T04:38:03.578Z,8.80
2022-09-27T04:41:05.131Z,8.80
2022-09-27T04:44:08.108Z,8.70
2022-09-27T04:47:09.549Z,8.60
2022-09-27T04:50:11.711Z,8.50
2022-09-27T04:53:16.418Z,8.60
2022-09-27T04:56:17.543Z,8.50
2022-09-27T04:59:19.032Z,8.60
2022-09-27T05:02:20.355Z,8.50
2022-09-27T05:06:00.892Z,8.50
2022-09-27T05:09:02.370Z,8.50
2022-09-27T05:12:07.867Z,8.50
2022-09-27T05:15:17.755Z,8.60
2022-09-27T05:18:27.349Z,8.60
2022-09-27T05:21:49.010Z,8.60
2022-09-27T05:24:50.024Z,8.70
2022-09-27T05:27:51.646Z,8.70
2022-09-27T05:30:54.174Z,8.80
2022-09-27T05:33:56.089Z,8.80
2022-09-27T05:37:07.518Z,8.80
2022-09-27T05:40:36.474Z,8.80
2022-09-27T05:43:33.285Z,8.80
2022-09-27T05:46:36.161Z,8.90
2022-09-27T05:49:39.459Z,9.00
2022-09-27T05:52:42.002Z,9.00
2022-09-27T05:55:43.525Z,9.00
2022-09-27T05:58:46.440Z,9.00
2022-09-27T06:01:51.885Z,9.00
2022-09-27T06:05:19.937Z,9.10
2022-09-27T06:08:40.192Z,9.10
2022-09-27T06:11:47.242Z,9.20
2022-09-27T06:14:50.204Z,9.20
2022-09-27T06:18:08.190Z,9.00
2022-09-27T06:21:09.567Z,9.00
2022-09-27T06:24:10.442Z,8.90
2022-09-27T06:27:11.858Z,8.90
2022-09-27T06:30:22.177Z,8.90
2022-09-27T06:33:28.327Z,9.10
2022-09-27T06:36:31.137Z,9.10
2022-09-27T06:39:33.489Z,9.20
2022-09-27T06:42:53.316Z,9.30
2022-09-27T06:46:12.073Z,9.60
2022-09-27T06:49:29.480Z,9.60
2022-09-27T06:52:35.221Z,9.70
2022-09-27T06:55:36.755Z,9.70
2022-09-27T06:58:56.060Z,9.70
2022-09-27T07:02:15.292Z,9.70
2022-09-27T07:05:36.928Z,9.60
2022-09-27T07:08:56.507Z,9.60
2022-09-27T07:11:57.744Z,9.40
2022-09-27T07:14:58.717Z,9.30
2022-09-27T07:18:00.585Z,9.10
2022-09-27T07:21:03.454Z,9.20
2022-09-27T07:24:05.238Z,9.20
2022-09-27T07:27:07.166Z,9.20
2022-09-27T07:30:12.091Z,9.10
2022-09-27T07:33:13.673Z,9.20
2022-09-27T07:36:15.103Z,9.20
2022-09-27T07:39:18.787Z,9.20
2022-09-27T07:42:20.706Z,9.10
2022-09-27T07:45:26.540Z,9.00
2022-09-27T07:48:52.675Z,8.90
2022-09-27T07:52:15.201Z,9.00
2022-09-27T07:55:24.640Z,9.10
2022-09-27T07:58:36.474Z,9.10
2022-09-27T08:01:41.129Z,9.20
2022-09-27T08:04:43.809Z,9.30
2022-09-27T08:07:45.140Z,9.30
2022-09-27T08:10:46.864Z,9.20
2022-09-27T08:13:50.000Z,9.10
2022-09-27T08:16:51.646Z,9.00
2022-09-27T08:20:14.734Z,9.10
2022-09-27T08:23:43.743Z,9.10
2022-09-27T08:27:05.192Z,9.10
2022-09-27T08:30:21.000Z,8.90
2022-09-27T08:33:22.242Z,8.70
2022-09-27T08:36:24.357Z,8.80
2022-09-27T08:39:25.839Z,8.90
2022-09-27T08:42:49.752Z,9.40
2022-09-27T08:46:15.059Z,9.70
2022-09-27T08:49:33.779Z,9.70
2022-09-27T08:52:48.515Z,10.10
2022-09-27T08:55:56.887Z,9.80
2022-09-27T08:59:23.716Z,10.20
2022-09-27T09:02:26.519Z,11.00
2022-09-27T09:05:34.907Z,10.80
2022-09-27T09:09:29.380Z,10.50
2022-09-27T09:13:14.900Z,10.70
2022-09-27T09:16:31.545Z,11.40
2022-09-27T09:20:17.359Z,12.30
2022-09-27T09:24:07.705Z,12.10
2022-09-27T09:27:13.740Z,12.60
2022-09-27T09:30:26.213Z,12.20
2022-09-27T09:33:41.869Z,11.80
2022-09-27T09:36:50.392Z,11.90
2022-09-27T09:40:04.244Z,12.00
2022-09-27T09:43:44.908Z,11.30
2022-09-27T09:46:51.734Z,11.20
2022-09-27T09:50:01.140Z,11.00
2022-09-27T09:53:19.533Z,11.10
2022-09-27T09:56:32.503Z,10.80
2022-09-27T09:59:48.257Z,10.80
2022-09-27T10:02:54.679Z,10.60
2022-09-27T10:05:56.306Z,10.60
2022-09-27T10:08:58.039Z,10.80
2022-09-27T10:12:12.828Z,10.90
2022-09-27T10:15:29.704Z,11.30
2022-09-27T10:18:32.741Z,14.50
2022-09-27T10:21:42.508Z,14.60
2022-09-27T10:25:02.660Z,14.70
2022-09-27T10:28:46.153Z,13.60
2022-09-27T10:31:50.486Z,15.00
2022-09-27T10:34:54.154Z,15.20
2022-09-27T10:38:27.523Z,13.80
2022-09-27T10:41:39.434Z,15.30
2022-09-27T10:44:44.728Z,14.10
2022-09-27T10:48:25.073Z,13.00
2022-09-27T10:51:32.406Z,12.60
2022-09-27T10:54:39.712Z,12.30
2022-09-27T10:57:45.024Z,12.70
2022-09-27T11:01:02.576Z,14.90
2022-09-27T11:04:07.624Z,16.10
2022-09-27T11:07:27.486Z,15.80
2022-09-27T11:10:37.812Z,14.10
2022-09-27T11:14:08.259Z,13.10
2022-09-27T11:17:25.312Z,12.80
2022-09-27T11:20:53.556Z,12.40
2022-09-27T11:24:00.663Z,12.20
2022-09-27T11:27:16.100Z,10.50
2022-09-27T11:30:22.639Z,9.90
2022-09-27T11:34:13.829Z,9.60
2022-09-27T11:38:21.155Z,9.10
2022-09-27T11:42:06.432Z,8.90
2022-09-27T11:45:56.465Z,8.50
2022-09-27T11:49:23.062Z,8.30
2022-09-27T11:52:41.732Z,8.90
2022-09-27T11:56:18.988Z,9.70
2022-09-27T11:59:38.607Z,9.50
2022-09-27T12:03:04.378Z,12.00
2022-09-27T12:06:14.970Z,11.20
2022-09-27T12:09:35.553Z,12.80
2022-09-27T12:12:41.459Z,14.90
2022-09-27T12:15:47.759Z,13.90
2022-09-27T12:18:52.848Z,14.90
2022-09-27T12:22:34.630Z,15.20
2022-09-27T12:25:42.905Z,15.00
2022-09-27T12:29:05.553Z,15.70
2022-09-27T12:32:25.410Z,15.00
2022-09-27T12:35:34.348Z,15.90
2022-09-27T12:39:02.131Z,14.70
2022-09-27T12:42:19.764Z,14.60
2022-09-27T12:46:17.886Z,15.30
2022-09-27T12:49:38.573Z,14.60
2022-09-27T12:52:51.333Z,15.50
2022-09-27T12:56:55.960Z,15.10
2022-09-27T13:00:17.237Z,14.80
2022-09-27T13:04:10.675Z,14.70
2022-09-27T13:07:39.845Z,16.50
2022-09-27T13:11:23.683Z,16.50
2022-09-27T13:14:29.918Z,16.50
2022-09-27T13:17:41.043Z,13.60
2022-09-27T13:20:49.119Z,13.30
2022-09-27T13:24:44.386Z,13.20
2022-09-27T13:27:54.896Z,12.50
2022-09-27T13:31:16.393Z,12.60
2022-09-27T13:34:46.755Z,12.40
2022-09-27T13:38:07.182Z,12.30
2022-09-27T13:41:21.237Z,12.10
2022-09-27T13:45:20.237Z,12.10
2022-09-27T13:48:50.836Z,12.30
2022-09-27T13:52:05.067Z,13.00
2022-09-27T13:55:52.105Z,12.20
2022-09-27T13:59:10.033Z,11.80
2022-09-27T14:02:39.988Z,12.60
2022-09-27T14:05:55.123Z,14.10
2022-09-27T14:09:08.029Z,14.10
2022-09-27T14:12:22.565Z,14.10
2022-09-27T14:15:29.385Z,15.20
2022-09-27T14:18:36.368Z,13.90
2022-09-27T14:21:40.108Z,12.90
2022-09-27T14:25:03.329Z,12.30
2022-09-27T14:28:41.509Z,12.30
2022-09-27T14:32:19.161Z,12.50
2022-09-27T14:35:50.215Z,11.90
2022-09-27T14:38:52.181Z,12.00
2022-09-27T14:42:00.879Z,11.90
2022-09-27T14:45:22.719Z,11.60
2022-09-27T14:48:32.444Z,11.40
2022-09-27T14:51:34.649Z,11.30
2022-09-27T14:54:35.885Z,11.10
2022-09-27T14:57:37.449Z,10.80
2022-09-27T15:00:38.767Z,10.60
2022-09-27T15:03:44.195Z,10.50
2022-09-27T15:06:47.267Z,10.30
2022-09-27T15:09:51.247Z,10.20
2022-09-27T15:13:00.073Z,10.20
2022-09-27T15:16:01.685Z,10.20
2022-09-27T15:19:29.705Z,10.20
2022-09-27T15:22:44.181Z,10.00
2022-09-27T15:26:22.507Z,9.90
2022-09-27T15:29:26.689Z,9.70
2022-09-27T15:32:29.412Z,9.60
2022-09-27T15:35:36.495Z,9.60
2022-09-27T15:38:48.593Z,9.50
2022-09-27T15:42:08.058Z,9.40
2022-09-27T15:45:33.990Z,9.20
2022-09-27T15:48:37.758Z,8.90
2022-09-27T15:51:42.568Z,8.70
2022-09-27T15:54:43.725Z,8.60
2022-09-27T15:57:51.398Z,8.60
2022-09-27T16:00:54.802Z,8.60
2022-09-27T16:04:01.343Z,8.60
2022-09-27T16:07:05.176Z,8.60
2022-09-27T16:10:26.944Z,8.50
2022-09-27T16:13:32.802Z,8.50
2022-09-27T16:16:34.750Z,8.50
2022-09-27T16:19:36.084Z,8.50
2022-09-27T16:22:37.156Z,8.50
2022-09-27T16:25:38.091Z,8.40
2022-09-27T16:28:39.054Z,8.30
2022-09-27T16:31:41.452Z,8.40
2022-09-27T16:34:42.658Z,8.30
2022-09-27T16:37:44.016Z,8.30
2022-09-27T16:40:44.869Z,8.40
2022-09-27T16:43:45.989Z,8.40
2022-09-27T16:46:46.859Z,8.40
2022-09-27T16:50:06.522Z,8.40
2022-09-27T16:53:08.805Z,8.30
2022-09-27T16:56:09.843Z,8.40
2022-09-27T16:59:11.045Z,8.40
2022-09-27T17:02:11.847Z,8.30
2022-09-27T17:05:14.840Z,8.30
2022-09-27T17:08:15.805Z,8.30
2022-09-27T17:11:19.574Z,8.30
2022-09-27T17:14:21.551Z,8.40
2022-09-27T17:17:22.523Z,8.40
2022-09-27T17:20:23.442Z,8.40
2022-09-27T17:23:24.285Z,8.40
2022-09-27T17:26:27.030Z,8.50
2022-09-27T17:29:27.882Z,8.50
2022-09-27T17:32:29.199Z,8.40
2022-09-27T17:35:31.284Z,8.30
2022-09-27T17:38:32.453Z,8.30
2022-09-27T17:41:39.556Z,8.30
2022-09-27T17:44:40.991Z,8.30
2022-09-27T17:48:00.511Z,8.30
2022-09-27T17:51:01.890Z,8.20
2022-09-27T17:54:04.908Z,8.10
2022-09-27T17:57:05.820Z,8.10
2022-09-27T18:00:08.457Z,8.10
2022-09-27T18:03:13.687Z,8.10
2022-09-27T18:06:19.046Z,8.10
2022-09-27T18:09:20.296Z,8.00
2022-09-27T18:12:21.897Z,8.00
2022-09-27T18:15:23.262Z,8.00
2022-09-27T18:18:24.911Z,8.00
2022-09-27T18:21:27.182Z,8.10
2022-09-27T18:24:28.218Z,8.10
2022-09-27T18:27:29.400Z,8.10
2022-09-27T18:30:30.097Z,8.10
2022-09-27T18:33:32.484Z,8.10
2022-09-27T18:36:33.552Z,8.10
2022-09-27T18:39:34.455Z,8.10
2022-09-27T18:42:35.445Z,8.10
2022-09-27T18:45:38.170Z,8.10
2022-09-27T18:48:39.631Z,8.20
2022-09-27T18:51:47.266Z,8.30
2022-09-27T18:54:49.303Z,8.30
2022-09-27T18:57:50.307Z,8.30
2022-09-27T19:00:51.366Z,8.40
2022-09-27T19:03:53.264Z,8.50
2022-09-27T19:06:56.520Z,8.50
2022-09-27T19:09:57.758Z,8.50
2022-09-27T19:12:58.486Z,8.60
2022-09-27T19:16:01.546Z,8.60
2022-09-27T19:19:02.326Z,8.70
2022-09-27T19:22:03.161Z,8.70
2022-09-27T19:25:04.424Z,8.70
2022-09-27T19:28:05.580Z,8.60
2022-09-27T19:31:09.974Z,8.60
2022-09-27T19:34:11.516Z,8.70
2022-09-27T19:37:12.792Z,8.70
2022-09-27T19:40:13.585Z,8.80
2022-09-27T19:43:14.642Z,8.80
2022-09-27T19:46:17.991Z,8.80
2022-09-27T19:49:19.034Z,8.90
2022-09-27T19:52:19.809Z,8.90
2022-09-27T19:55:20.673Z,8.80
2022-09-27T19:58:21.504Z,8.90
2022-09-27T20:01:24.993Z,8.80
2022-09-27T20:04:28.219Z,8.80
2022-09-27T20:07:29.356Z,8.70
2022-09-27T20:10:30.131Z,8.80
2022-09-27T20:13:32.626Z,8.90
2022-09-27T20:16:36.944Z,8.90
2022-09-27T20:19:40.215Z,9.00
2022-09-27T20:22:41.209Z,8.90
2022-09-27T20:25:43.346Z,8.90
2022-09-27T20:28:47.449Z,8.80
2022-09-27T20:32:09.456Z,8.80
2022-09-27T20:35:11.242Z,8.80
2022-09-27T20:38:12.114Z,8.80
2022-09-27T20:41:18.163Z,8.80
2022-09-27T20:44:20.636Z,8.80
2022-09-27T20:47:22.380Z,8.80
2022-09-27T20:50:23.100Z,8.70
2022-09-27T20:53:26.601Z,8.80
2022-09-27T20:56:37.737Z,8.80
2022-09-27T20:59:38.758Z,8.90
2022-09-27T21:02:39.923Z,8.80
2022-09-27T21:05:40.661Z,8.80
2022-09-27T21:08:41.643Z,8.80
2022-09-27T21:11:42.958Z,8.90
2022-09-27T21:14:43.922Z,8.90
2022-09-27T21:17:44.739Z,9.00
2022-09-27T21:20:45.835Z,9.10
2022-09-27T21:23:47.972Z,9.10
2022-09-27T21:26:49.426Z,9.10
2022-09-27T21:29:50.401Z,9.20
2022-09-27T21:32:57.967Z,9.20
2022-09-27T21:35:58.767Z,9.10
2022-09-27T21:39:00.761Z,9.10
2022-09-27T21:42:01.934Z,9.00
2022-09-27T21:45:02.727Z,8.90
2022-09-27T21:48:03.578Z,8.90
2022-09-27T21:51:12.604Z,8.90
2022-09-27T21:54:15.773Z,8.80
2022-09-27T21:57:16.940Z,8.70
2022-09-27T22:00:17.693Z,8.70
2022-09-27T22:03:20.475Z,8.70
2022-09-27T22:06:27.430Z,8.60
2022-09-27T22:09:28.903Z,8.60
2022-09-27T22:12:29.750Z,8.60
2022-09-27T22:15:30.617Z,8.50
2022-09-27T22:18:31.640Z,8.50
2022-09-27T22:21:37.247Z,8.60
2022-09-27T22:24:38.223Z,8.60
2022-09-27T22:27:39.222Z,8.80
2022-09-27T22:30:40.002Z,8.80
2022-09-27T22:33:48.814Z,8.90
2022-09-27T22:36:49.516Z,9.00
2022-09-27T22:39:50.307Z,9.00
2022-09-27T22:42:51.630Z,8.90
2022-09-27T22:45:52.813Z,8.90
2022-09-27T22:48:53.755Z,8.90
2022-09-27T22:51:54.431Z,8.90
2022-09-27T22:54:55.420Z,8.80
2022-09-27T22:57:56.388Z,8.70
2022-09-27T23:00:57.282Z,8.70
2022-09-27T23:03:59.065Z,8.60
2022-09-27T23:06:59.972Z,8.60
2022-09-27T23:10:00.712Z,8.50
2022-09-27T23:13:01.731Z,8.50
2022-09-27T23:16:05.699Z,8.40
2022-09-27T23:19:08.340Z,8.40
2022-09-27T23:22:09.451Z,8.40
2022-09-27T23:25:10.331Z,8.50
2022-09-27T23:28:11.263Z,8.50
2022-09-27T23:31:17.185Z,8.50
2022-09-27T23:34:18.489Z,8.60
2022-09-27T23:37:19.516Z,8.50
2022-09-27T23:40:20.489Z,8.60
2022-09-27T23:43:21.435Z,8.60
2022-09-27T23:46:22.409Z,8.60
2022-09-27T23:49:24.166Z,8.50
2022-09-27T23:52:26.368Z,8.40
2022-09-27T23:55:27.281Z,8.40
2022-09-27T23:58:33.987Z,8.50
